Time;durP1;ratioP1;P1;durP2;ratioP2;P2;SDS_P1;SDS_P2;PMS_P1;PMS_P2;Temp;Humidity;BMP_temperature;BMP_pressure;BME280_temperature;BME280_humidity;BME280_pressure;Samples;Min_cycle;Max_cycle;Signal;HPM_P1;HPM_P2
2022/02/13 00:00:47;;;;;;;9.27;5.10;;;;;;;-0.98;94.17;96791.41;5024113;28;20547;-77
2022/02/13 00:03:13;;;;;;;10.03;4.43;;;;;;;-1.00;94.37;96795.81;5038199;28;20421;-78
2022/02/13 00:05:39;;;;;;;8.63;4.43;;;;;;;-1.01;94.14;96791.53;5030330;28;20471;-77
2022/02/13 00:08:05;;;;;;;7.57;4.33;;;;;;;-1.01;93.60;96786.38;5034224;28;20103;-78
2022/02/13 00:10:32;;;;;;;8.50;4.63;;;;;;;-1.11;94.70;96787.75;5032705;28;20875;-78
2022/02/13 00:12:58;;;;;;;11.83;5.70;;;;;;;-1.19;95.57;96793.28;5028469;28;20444;-78
2022/02/13 00:15:24;;;;;;;9.77;5.40;;;;;;;-1.27;96.63;96785.09;5029957;28;20487;-78
2022/02/13 00:17:50;;;;;;;10.87;5.40;;;;;;;-1.42;97.86;96782.28;5020038;28;20124;-78
2022/02/13 00:20:16;;;;;;;8.13;4.73;;;;;;;-1.51;98.89;96780.19;5035666;28;20385;-78
2022/02/13 00:22:41;;;;;;;9.20;4.77;;;;;;;-1.55;99.47;96777.78;5024267;28;20032;-79
2022/02/13 00:25:07;;;;;;;8.33;4.87;;;;;;;-1.62;100.00;96781.56;5025011;28;20037;-77
2022/02/13 00:27:33;;;;;;;9.63;4.77;;;;;;;-1.63;100.00;96777.31;5032702;28;20024;-77
2022/02/13 00:29:58;;;;;;;11.40;4.93;;;;;;;-1.57;100.00;96774.47;5039885;28;20121;-78
2022/02/13 00:32:26;;;;;;;11.60;5.30;;;;;;;-1.56;100.00;96770.97;5033111;28;20029;-77
2022/02/13 00:34:52;;;;;;;9.73;5.30;;;;;;;-1.53;100.00;96771.66;5037799;28;20091;-77
2022/02/13 00:37:20;;;;;;;9.93;5.30;;;;;;;-1.55;100.00;96770.06;5046181;28;20487;-78
2022/02/13 00:39:45;;;;;;;11.07;6.13;;;;;;;-1.50;100.00;96765.53;5049406;28;21228;-78
2022/02/13 00:42:12;;;;;;;12.80;5.00;;;;;;;-1.37;100.00;96765.78;5049887;28;20478;-77
2022/02/13 00:44:38;;;;;;;11.27;5.67;;;;;;;-1.43;100.00;96761.75;5040372;28;20506;-77
2022/02/13 00:47:04;;;;;;;10.03;4.70;;;;;;;-1.43;100.00;96757.41;5034182;28;21107;-77
2022/02/13 00:49:30;;;;;;;9.00;4.67;;;;;;;-1.44;100.00;96760.91;5018905;28;20610;-80
2022/02/13 00:51:56;;;;;;;11.77;4.30;;;;;;;-1.37;100.00;96761.47;5025141;28;20468;-77
2022/02/13 00:54:21;;;;;;;9.53;4.80;;;;;;;-1.40;100.00;96761.59;5042391;28;20029;-77
2022/02/13 00:56:47;;;;;;;10.83;5.03;;;;;;;-1.43;100.00;96759.16;5035334;28;20037;-78
2022/02/13 00:59:14;;;;;;;11.87;5.10;;;;;;;-1.46;100.00;96764.47;5028642;28;20091;-78
2022/02/13 01:01:40;;;;;;;10.90;5.60;;;;;;;-1.55;100.00;96765.72;5037977;28;20467;-77
2022/02/13 01:04:06;;;;;;;9.77;5.00;;;;;;;-1.59;100.00;96764.22;5040386;28;20016;-77
2022/02/13 01:06:31;;;;;;;10.67;5.40;;;;;;;-1.66;100.00;96766.22;5050128;28;20056;-77
2022/02/13 01:08:57;;;;;;;10.23;5.43;;;;;;;-1.71;100.00;96763.06;5046643;28;20025;-78
2022/02/13 01:11:23;;;;;;;13.17;5.17;;;;;;;-1.78;100.00;96761.63;5039248;28;20037;-79
2022/02/13 01:13:49;;;;;;;12.77;6.13;;;;;;;-1.76;100.00;96753.84;5023292;28;20080;-81
2022/02/13 01:16:16;;;;;;;9.50;4.83;;;;;;;-1.77;100.00;96753.00;5030267;28;20060;-77
2022/02/13 01:18:42;;;;;;;11.57;5.13;;;;;;;-1.86;100.00;96762.91;5017420;28;20030;-78
2022/02/13 01:21:08;;;;;;;11.33;5.13;;;;;;;-1.92;100.00;96756.28;5038696;28;20511;-78
2022/02/13 01:23:36;;;;;;;11.00;5.80;;;;;;;-1.95;100.00;96766.72;5018526;28;20034;-78
2022/02/13 01:26:01;;;;;;;10.87;5.50;;;;;;;-1.94;100.00;96761.53;5016578;28;20459;-78
2022/02/13 01:28:27;;;;;;;12.63;6.27;;;;;;;-2.01;100.00;96761.84;5042352;28;21280;-78
2022/02/13 01:30:57;;;;;;;11.47;6.47;;;;;;;-2.05;100.00;96755.16;5031947;28;20034;-79
2022/02/13 01:33:23;;;;;;;9.60;4.70;;;;;;;-2.05;100.00;96763.72;5036385;28;20464;-78
2022/02/13 01:35:49;;;;;;;12.37;5.43;;;;;;;-2.07;100.00;96762.16;5059877;28;20469;-79
2022/02/13 01:38:15;;;;;;;11.47;5.67;;;;;;;-2.05;100.00;96757.75;5030911;28;20032;-82
2022/02/13 01:40:41;;;;;;;11.13;5.40;;;;;;;-2.11;100.00;96746.00;5046150;28;20047;-77
2022/02/13 01:43:06;;;;;;;13.83;5.60;;;;;;;-2.19;100.00;96748.06;5047345;28;20030;-77
2022/02/13 01:45:32;;;;;;;9.93;4.93;;;;;;;-2.26;100.00;96750.06;5014073;28;20095;-77
2022/02/13 01:47:58;;;;;;;14.33;5.07;;;;;;;-2.28;100.00;96756.19;5039707;28;20037;-76
2022/02/13 01:50:24;;;;;;;12.27;5.73;;;;;;;-2.26;100.00;96734.63;5042874;28;20048;-77
2022/02/13 01:52:51;;;;;;;10.67;5.17;;;;;;;-2.28;100.00;96736.44;5030860;28;20080;-78
2022/02/13 01:55:17;;;;;;;11.43;5.13;;;;;;;-2.23;100.00;96734.47;5029946;28;20037;-78
2022/02/13 01:57:43;;;;;;;13.13;5.83;;;;;;;-2.23;100.00;96734.47;5018390;28;20522;-79
2022/02/13 02:00:09;;;;;;;9.20;5.10;;;;;;;-2.25;100.00;96731.13;5022159;28;20442;-78
2022/02/13 02:02:41;;;;;;;9.97;5.40;;;;;;;-2.22;100.00;96728.41;5031360;28;20026;-78
2022/02/13 02:05:07;;;;;;;9.07;5.00;;;;;;;-2.23;100.00;96723.34;5025094;28;20633;-77
2022/02/13 02:07:32;;;;;;;11.73;5.23;;;;;;;-2.17;100.00;96717.94;5024038;28;20041;-78
2022/02/13 02:09:59;;;;;;;10.97;5.13;;;;;;;-2.27;100.00;96720.06;5045524;28;20479;-77
2022/02/13 02:12:26;;;;;;;12.30;5.70;;;;;;;-2.31;100.00;96723.69;5057506;28;20033;-78
2022/02/13 02:14:52;;;;;;;10.03;5.23;;;;;;;-2.31;100.00;96715.13;5027608;28;21392;-78
2022/02/13 02:17:18;;;;;;;12.07;5.23;;;;;;;-2.34;100.00;96713.53;5012683;28;20489;-78
2022/02/13 02:19:43;;;;;;;11.27;5.40;;;;;;;-2.37;100.00;96721.41;5016029;28;20034;-77
2022/02/13 02:22:09;;;;;;;13.77;6.60;;;;;;;-2.38;100.00;96715.41;5033841;28;20658;-77
2022/02/13 02:24:35;;;;;;;12.80;5.57;;;;;;;-2.37;100.00;96713.66;5048587;28;20075;-78
2022/02/13 02:27:02;;;;;;;11.83;5.93;;;;;;;-2.34;100.00;96708.38;5025741;28;20465;-78
2022/02/13 02:29:28;;;;;;;9.60;5.07;;;;;;;-2.29;100.00;96709.00;5020620;28;21082;-79
2022/02/13 02:31:54;;;;;;;11.60;6.17;;;;;;;-2.31;100.00;96708.25;5054902;28;20456;-78
2022/02/13 02:34:19;;;;;;;9.07;4.73;;;;;;;-2.29;100.00;96706.41;5031309;28;20144;-78
2022/02/13 02:36:45;;;;;;;11.27;6.43;;;;;;;-2.37;100.00;96706.78;5036495;28;20076;-79
2022/02/13 02:39:11;;;;;;;13.50;6.53;;;;;;;-2.40;100.00;96700.94;5010409;28;20475;-78
2022/02/13 02:41:37;;;;;;;11.10;5.10;;;;;;;-2.46;100.00;96701.19;5035859;28;20026;-78
2022/02/13 02:44:04;;;;;;;10.43;5.27;;;;;;;-2.55;100.00;96691.28;5022296;28;20997;-77
2022/02/13 02:46:30;;;;;;;11.27;5.80;;;;;;;-2.53;100.00;96685.19;5020293;28;20550;-77
2022/02/13 02:48:56;;;;;;;12.33;5.67;;;;;;;-2.53;100.00;96684.34;5047552;28;20499;-79
2022/02/13 02:51:22;;;;;;;9.80;4.90;;;;;;;-2.58;100.00;96694.84;5017516;28;20488;-77
2022/02/13 02:53:48;;;;;;;10.03;5.20;;;;;;;-2.56;100.00;96680.16;5042082;28;20040;-77
2022/02/13 02:56:14;;;;;;;12.97;5.90;;;;;;;-2.63;100.00;96689.91;5038030;28;20868;-78
2022/02/13 02:58:41;;;;;;;10.00;5.23;;;;;;;-2.63;100.00;96679.59;5022827;28;20065;-78
2022/02/13 03:01:07;;;;;;;8.63;5.07;;;;;;;-2.56;100.00;96680.16;5025442;28;20483;-78
2022/02/13 03:03:33;;;;;;;10.33;5.37;;;;;;;-2.55;100.00;96675.84;5043350;28;20971;-78
2022/02/13 03:06:00;;;;;;;12.90;5.67;;;;;;;-2.51;100.00;96672.25;5029385;28;20992;-78
2022/02/13 03:08:26;;;;;;;10.53;5.50;;;;;;;-2.51;100.00;96670.50;5029626;28;20605;-77
2022/02/13 03:10:52;;;;;;;12.20;5.50;;;;;;;-2.42;100.00;96676.97;5024866;28;20491;-77
2022/02/13 03:13:20;;;;;;;13.20;5.40;;;;;;;-2.36;100.00;96668.97;5042726;28;20037;-77
2022/02/13 03:15:49;;;;;;;11.30;5.30;;;;;;;-2.31;100.00;96668.75;5019713;28;20125;-78
2022/02/13 03:18:19;;;;;;;10.57;4.97;;;;;;;-2.31;100.00;96666.16;5044248;28;20512;-78
2022/02/13 03:20:46;;;;;;;11.13;4.90;;;;;;;-2.34;100.00;96664.59;5024073;28;20542;-77
2022/02/13 03:23:13;;;;;;;10.90;5.83;;;;;;;-2.32;100.00;96665.34;5030114;28;20464;-78
2022/02/13 03:25:39;;;;;;;11.00;5.60;;;;;;;-2.40;100.00;96663.13;5027145;28;20518;-78
2022/02/13 03:28:05;;;;;;;11.70;5.40;;;;;;;-2.46;100.00;96667.72;5027600;28;20559;-77
2022/02/13 03:30:30;;;;;;;10.23;5.10;;;;;;;-2.47;100.00;96671.19;5033267;28;20979;-77
2022/02/13 03:32:56;;;;;;;11.17;5.43;;;;;;;-2.49;100.00;96660.94;5016569;28;20033;-77
2022/02/13 03:35:23;;;;;;;11.93;5.87;;;;;;;-2.43;100.00;96665.84;5027663;28;20022;-77
2022/02/13 03:37:50;;;;;;;12.23;6.23;;;;;;;-2.53;100.00;96669.72;5045626;28;20060;-77
2022/02/13 03:40:17;;;;;;;10.47;5.63;;;;;;;-2.55;100.00;96666.38;5023786;28;20444;-77
2022/02/13 03:42:43;;;;;;;10.63;5.70;;;;;;;-2.58;100.00;96666.53;5047856;28;20482;-78
2022/02/13 03:45:09;;;;;;;10.53;5.17;;;;;;;-2.52;100.00;96667.97;5027213;28;20980;-77
2022/02/13 03:47:35;;;;;;;9.83;4.90;;;;;;;-2.51;100.00;96667.94;5043888;28;20491;-78
2022/02/13 03:50:02;;;;;;;10.87;5.97;;;;;;;-2.46;100.00;96660.00;5033053;28;20511;-77
2022/02/13 03:52:27;;;;;;;10.10;5.30;;;;;;;-2.47;100.00;96666.06;5028738;28;20067;-77
2022/02/13 03:54:53;;;;;;;12.30;5.63;;;;;;;-2.51;100.00;96670.50;5041350;28;20483;-77
2022/02/13 03:57:19;;;;;;;9.37;5.50;;;;;;;-2.47;100.00;96671.19;5065167;28;20037;-77
2022/02/13 03:59:45;;;;;;;12.20;6.27;;;;;;;-2.53;100.00;96669.72;5080588;28;20037;-79
2022/02/13 04:02:11;;;;;;;12.60;6.13;;;;;;;-2.56;100.00;96675.00;5039004;28;20033;-78
2022/02/13 04:04:36;;;;;;;11.23;5.63;;;;;;;-2.58;100.00;96671.69;5031482;28;20085;-77
2022/02/13 04:07:02;;;;;;;9.47;5.33;;;;;;;-2.61;100.00;96666.66;5038350;28;20661;-78
2022/02/13 04:09:28;;;;;;;10.73;5.67;;;;;;;-2.67;100.00;96670.34;5038111;28;20041;-81
2022/02/13 04:11:55;;;;;;;14.53;5.40;;;;;;;-2.78;100.00;96667.41;5050057;28;20040;-77
2022/02/13 04:14:23;;;;;;;10.03;5.47;;;;;;;-2.74;100.00;96676.66;5023979;28;20150;-77
2022/02/13 04:16:48;;;;;;;12.20;5.47;;;;;;;-2.70;100.00;96680.78;5032289;28;21036;-78
2022/02/13 04:19:14;;;;;;;12.37;5.30;;;;;;;-2.74;100.00;96663.78;5037193;28;20033;-77
2022/02/13 04:21:40;;;;;;;10.50;5.73;;;;;;;-2.77;100.00;96670.81;5039512;28;20033;-78
2022/02/13 04:24:06;;;;;;;9.90;6.00;;;;;;;-2.73;100.00;96672.34;5034073;28;20036;-77
2022/02/13 04:26:31;;;;;;;11.80;6.10;;;;;;;-2.56;100.00;96669.03;5037619;28;20034;-79
2022/02/13 04:28:57;;;;;;;9.97;5.53;;;;;;;-2.52;100.00;96673.13;5034577;28;20038;-79
2022/02/13 04:31:23;;;;;;;13.70;4.63;;;;;;;-2.46;100.00;96660.81;5020696;28;20059;-78
2022/02/13 04:33:48;;;;;;;9.73;5.27;;;;;;;-2.36;100.00;96671.53;5015414;28;20075;-78
2022/02/13 04:36:15;;;;;;;13.37;5.70;;;;;;;-2.32;100.00;96662.75;5046489;28;20036;-78
2022/02/13 04:38:40;;;;;;;12.70;5.33;;;;;;;-2.26;100.00;96661.66;5045305;28;20021;-78
2022/02/13 04:41:06;;;;;;;13.70;5.90;;;;;;;-2.22;100.00;96668.34;5030486;28;20485;-77
2022/02/13 04:43:33;;;;;;;13.77;5.70;;;;;;;-2.27;100.00;96660.00;5045140;28;20033;-78
2022/02/13 04:45:59;;;;;;;11.00;5.90;;;;;;;-2.29;100.00;96660.06;5016498;28;20064;-79
2022/02/13 04:48:25;;;;;;;9.87;5.13;;;;;;;-2.38;100.00;96650.19;5040407;28;20472;-77
2022/02/13 04:50:51;;;;;;;13.73;5.73;;;;;;;-2.39;100.00;96645.91;5021556;28;20483;-79
2022/02/13 04:53:16;;;;;;;11.70;5.90;;;;;;;-2.35;100.00;96647.44;5030470;28;20497;-77
2022/02/13 04:55:42;;;;;;;9.77;5.60;;;;;;;-2.41;100.00;96645.19;5033220;28;20302;-77
2022/02/13 04:58:08;;;;;;;11.23;5.50;;;;;;;-2.44;100.00;96653.03;5027773;28;20071;-77
2022/02/13 05:00:36;;;;;;;9.80;5.30;;;;;;;-2.42;100.00;96641.75;5025219;28;20498;-78
2022/02/13 05:03:01;;;;;;;13.10;5.33;;;;;;;-2.46;100.00;96644.53;5043567;28;20455;-77
2022/02/13 05:05:27;;;;;;;8.67;5.37;;;;;;;-2.52;100.00;96639.66;5024983;28;20522;-79
2022/02/13 05:07:53;;;;;;;10.53;5.33;;;;;;;-2.55;100.00;96640.63;5038211;28;20042;-77
2022/02/13 05:10:20;;;;;;;9.37;5.27;;;;;;;-2.59;100.00;96633.94;5043077;28;20669;-78
2022/02/13 05:12:45;;;;;;;10.73;5.37;;;;;;;-2.57;100.00;96632.16;5038801;28;20443;-77
2022/02/13 05:15:13;;;;;;;12.50;5.63;;;;;;;-2.62;100.00;96634.94;5035374;28;20463;-77
2022/02/13 05:17:39;;;;;;;9.70;5.83;;;;;;;-2.54;100.00;96628.63;5015292;28;20092;-78
2022/02/13 05:20:06;;;;;;;17.23;6.17;;;;;;;-2.58;100.00;96622.75;5032927;28;20922;-78
2022/02/13 05:22:32;;;;;;;11.17;6.10;;;;;;;-2.63;100.00;96633.25;5048139;28;20082;-78
2022/02/13 05:24:58;;;;;;;15.17;6.73;;;;;;;-2.62;100.00;96624.66;5020478;28;20549;-77
2022/02/13 05:27:24;;;;;;;12.30;6.00;;;;;;;-2.45;100.00;96625.59;5041196;28;20547;-77
2022/02/13 05:29:50;;;;;;;11.23;5.90;;;;;;;-2.40;100.00;96623.66;5037362;28;20497;-78
2022/02/13 05:32:16;;;;;;;11.57;6.20;;;;;;;-2.40;100.00;96623.66;5043160;28;20022;-77
2022/02/13 05:34:41;;;;;;;12.43;5.73;;;;;;;-2.38;100.00;96616.72;5026941;28;20513;-78
2022/02/13 05:37:07;;;;;;;11.97;6.13;;;;;;;-2.44;100.00;96620.38;5044850;28;20383;-77
2022/02/13 05:39:34;;;;;;;16.07;6.70;;;;;;;-2.41;100.00;96614.28;5022005;28;20038;-77
2022/02/13 05:41:59;;;;;;;17.00;7.07;;;;;;;-2.40;100.00;96616.75;5028358;28;20468;-76
2022/02/13 05:44:26;;;;;;;14.93;6.80;;;;;;;-2.36;100.00;96617.44;5011621;28;20468;-77
2022/02/13 05:46:52;;;;;;;11.83;7.30;;;;;;;-2.36;100.00;96612.31;5037679;28;20036;-79
2022/02/13 05:49:18;;;;;;;16.27;7.13;;;;;;;-2.26;100.00;96613.53;5044594;28;20479;-77
2022/02/13 05:51:44;;;;;;;11.93;6.13;;;;;;;-2.30;100.00;96614.59;5040519;28;20505;-78
2022/02/13 05:54:10;;;;;;;13.17;6.70;;;;;;;-2.30;100.00;96619.75;5023085;28;20045;-77
2022/02/13 05:56:36;;;;;;;11.20;6.17;;;;;;;-2.33;100.00;96614.75;5012729;28;20460;-77
2022/02/13 05:59:02;;;;;;;11.50;5.67;;;;;;;-2.28;100.00;96617.09;5062461;28;20634;-78
2022/02/13 06:01:28;;;;;;;16.43;6.37;;;;;;;-2.23;100.00;96617.72;5009311;28;20042;-77
2022/02/13 06:03:55;;;;;;;11.27;5.53;;;;;;;-2.26;100.00;96616.13;5032147;28;20497;-77
2022/02/13 06:06:21;;;;;;;13.83;6.47;;;;;;;-2.24;100.00;96611.75;5035716;28;20854;-78
2022/02/13 06:08:46;;;;;;;17.97;8.73;;;;;;;-2.20;100.00;96615.84;5042517;28;20505;-78
2022/02/13 06:11:13;;;;;;;11.17;5.27;;;;;;;-2.26;100.00;96616.13;5038041;28;20037;-77
2022/02/13 06:13:39;;;;;;;15.70;6.00;;;;;;;-2.28;100.00;96617.94;5018146;28;20033;-78
2022/02/13 06:16:06;;;;;;;13.20;5.70;;;;;;;-2.18;100.00;96616.59;5028850;28;20475;-78
2022/02/13 06:18:36;;;;;;;13.97;6.53;;;;;;;-2.27;100.00;96614.47;5029763;28;20026;-79
2022/02/13 06:21:03;;;;;;;15.10;7.20;;;;;;;-2.37;100.00;96614.03;5039287;28;20774;-77
2022/02/13 06:23:28;;;;;;;14.33;6.27;;;;;;;-2.43;100.00;96608.34;5021792;28;20483;-78
2022/02/13 06:25:54;;;;;;;17.27;6.60;;;;;;;-2.47;100.00;96607.66;5047566;28;20495;-78
2022/02/13 06:28:21;;;;;;;10.30;5.97;;;;;;;-2.44;100.00;96611.84;5011825;28;20049;-77
2022/02/13 06:30:46;;;;;;;18.00;11.77;;;;;;;-2.41;100.00;96609.13;5006987;28;21257;-78
2022/02/13 06:33:14;;;;;;;15.47;9.23;;;;;;;-2.22;100.00;96615.06;5041373;28;20479;-77
2022/02/13 06:35:40;;;;;;;11.07;6.10;;;;;;;-2.08;100.00;96613.56;5049408;28;20021;-79
2022/02/13 06:38:13;;;;;;;12.10;5.87;;;;;;;-1.88;100.00;96608.31;5013399;28;20463;-78
2022/02/13 06:40:40;;;;;;;10.52;5.43;;;;;;;-1.74;100.00;96607.66;5009777;28;20567;-78
2022/02/13 06:43:05;;;;;;;12.50;5.27;;;;;;;-1.59;100.00;96600.91;5017177;28;20021;-76
2022/02/13 06:45:31;;;;;;;14.23;6.17;;;;;;;-1.56;100.00;96601.59;5006624;28;21047;-79
2022/02/13 06:47:57;;;;;;;11.37;6.57;;;;;;;-1.47;100.00;96603.72;5019410;28;20091;-77
2022/02/13 06:50:22;;;;;;;12.57;5.97;;;;;;;-1.37;100.00;96600.69;5015910;28;20041;-77
2022/02/13 06:52:48;;;;;;;11.10;6.03;;;;;;;-1.29;100.00;96601.94;5018969;28;20348;-77
2022/02/13 06:55:14;;;;;;;15.97;8.03;;;;;;;-1.12;100.00;96605.41;5005211;28;20458;-79
2022/02/13 06:57:45;;;;;;;17.00;10.63;;;;;;;-1.08;100.00;96597.41;5051760;28;20414;-77
2022/02/13 07:00:12;;;;;;;11.30;5.80;;;;;;;-0.99;100.00;96606.44;5018518;28;20543;-79
2022/02/13 07:02:38;;;;;;;11.10;6.10;;;;;;;-0.99;100.00;96599.53;5019877;28;20448;-78
2022/02/13 07:05:04;;;;;;;15.00;8.37;;;;;;;-0.82;100.00;96598.66;5003253;28;20585;-78
2022/02/13 07:07:31;;;;;;;15.13;7.80;;;;;;;-0.75;100.00;96599.16;5030574;28;20136;-76
2022/02/13 07:09:57;;;;;;;11.57;6.57;;;;;;;-0.57;100.00;96599.94;5016416;28;20477;-77
2022/02/13 07:12:23;;;;;;;14.57;7.40;;;;;;;-0.48;100.00;96605.44;5003475;28;20461;-77
2022/02/13 07:14:48;;;;;;;16.53;8.67;;;;;;;-0.35;100.00;96595.28;5013178;28;20045;-77
2022/02/13 07:17:14;;;;;;;17.50;7.30;;;;;;;-0.16;100.00;96594.28;4996950;28;20030;-79
2022/02/13 07:19:40;;;;;;;13.23;6.90;;;;;;;-0.06;100.00;96603.19;5012949;28;20057;-77
2022/02/13 07:22:06;;;;;;;13.27;6.30;;;;;;;-0.08;100.00;96594.69;5022164;28;20044;-78
2022/02/13 07:24:34;;;;;;;13.23;7.10;;;;;;;-0.17;100.00;96601.19;5001122;28;20041;-77
2022/02/13 07:27:01;;;;;;;12.93;6.63;;;;;;;-0.26;100.00;96589.63;5018302;28;21219;-77
2022/02/13 07:29:27;;;;;;;14.80;7.37;;;;;;;-0.16;100.00;96591.69;5001994;28;20472;-77
2022/02/13 07:31:52;;;;;;;12.23;6.37;;;;;;;0.01;100.00;96585.59;4999471;28;20491;-75
2022/02/13 07:34:18;;;;;;;12.47;6.20;;;;;;;0.31;100.00;96586.44;5055351;28;20476;-76
2022/02/13 07:36:44;;;;;;;10.47;6.40;;;;;;;1.36;100.00;96561.19;5025310;28;20124;-77
2022/02/13 07:39:10;;;;;;;9.87;5.77;;;;;;;1.41;100.00;96564.34;5021518;28;20030;-77
2022/02/13 07:41:35;;;;;;;10.90;5.73;;;;;;;1.31;97.38;96568.44;5000373;28;20140;-77
2022/02/13 07:44:04;;;;;;;10.87;5.77;;;;;;;1.62;93.70;96562.16;5006646;28;20039;-77
2022/02/13 07:46:30;;;;;;;13.43;5.97;;;;;;;1.60;92.35;96564.00;5037272;28;20467;-77
2022/02/13 07:48:55;;;;;;;14.13;6.07;;;;;;;2.43;89.08;96556.09;5023534;28;20818;-78
2022/02/13 07:51:21;;;;;;;10.13;5.47;;;;;;;2.87;85.92;96557.50;5021977;28;20033;-77
2022/02/13 07:53:47;;;;;;;14.40;6.87;;;;;;;2.55;85.60;96557.06;5001287;28;20087;-78
2022/02/13 07:56:14;;;;;;;13.70;6.37;;;;;;;2.91;82.83;96552.91;5003015;28;20128;-78
2022/02/13 07:58:40;;;;;;;14.80;7.30;;;;;;;2.95;81.27;96559.56;5005386;28;21036;-77
2022/02/13 08:01:06;;;;;;;16.03;7.63;;;;;;;3.04;79.96;96557.16;5018091;28;20464;-77
2022/02/13 08:03:36;;;;;;;15.63;7.30;;;;;;;3.03;81.19;96557.28;5020940;28;20047;-78
2022/02/13 08:06:03;;;;;;;14.60;7.90;;;;;;;3.50;80.41;96556.59;5003008;28;20500;-78
2022/02/13 08:08:29;;;;;;;17.37;8.27;;;;;;;3.19;80.65;96546.69;5021269;28;20033;-77
2022/02/13 08:10:55;;;;;;;15.43;8.03;;;;;;;3.37;79.51;96550.59;5062434;28;20091;-77
2022/02/13 08:13:21;;;;;;;15.53;7.70;;;;;;;3.83;76.00;96544.75;5030554;28;20030;-77
2022/02/13 08:15:46;;;;;;;19.37;8.97;;;;;;;3.95;75.82;96543.84;5031798;28;20033;-78
2022/02/13 08:18:13;;;;;;;22.87;11.67;;;;;;;3.98;74.57;96550.59;5038747;28;20088;-77
2022/02/13 08:20:40;;;;;;;19.17;9.70;;;;;;;3.94;76.12;96550.00;5007713;28;20029;-78
2022/02/13 08:23:07;;;;;;;14.13;6.83;;;;;;;4.54;72.61;96542.19;5031196;28;20706;-78
2022/02/13 08:25:33;;;;;;;10.77;5.97;;;;;;;4.67;72.00;96540.31;5033278;28;20609;-78
2022/02/13 08:27:59;;;;;;;9.70;5.10;;;;;;;5.36;69.51;96543.69;5045064;28;20037;-79
2022/02/13 08:30:25;;;;;;;9.57;5.10;;;;;;;5.34;69.97;96535.16;5031143;28;20099;-80
2022/02/13 08:32:51;;;;;;;16.53;7.43;;;;;;;5.24;67.93;96544.66;5061041;28;20034;-78
2022/02/13 08:35:16;;;;;;;10.97;5.83;;;;;;;4.76;70.39;96537.00;5030360;28;20104;-79
2022/02/13 08:37:43;;;;;;;11.10;6.27;;;;;;;5.43;68.02;96531.84;5034843;28;20518;-77
2022/02/13 08:40:09;;;;;;;13.60;5.40;;;;;;;5.64;66.13;96533.72;5026967;28;20034;-76
2022/02/13 08:42:35;;;;;;;10.80;5.43;;;;;;;5.87;64.72;96532.72;5020641;28;20065;-77
2022/02/13 08:45:01;;;;;;;12.07;5.00;;;;;;;6.83;63.52;96528.38;5033375;28;20178;-78
2022/02/13 08:47:27;;;;;;;9.83;5.20;;;;;;;6.32;64.15;96534.34;5009299;28;20462;-77
2022/02/13 08:49:52;;;;;;;11.43;5.30;;;;;;;6.20;64.93;96527.50;5009555;28;20026;-77
2022/02/13 08:52:18;;;;;;;8.57;5.03;;;;;;;7.09;61.33;96523.56;5019985;28;20033;-79
2022/02/13 08:54:47;;;;;;;12.70;5.77;;;;;;;7.48;60.48;96532.41;5003570;28;20037;-78
2022/02/13 08:57:13;;;;;;;9.80;5.87;;;;;;;6.49;62.90;96525.97;5019713;28;20033;-78
2022/02/13 08:59:39;;;;;;;14.73;5.87;;;;;;;7.45;59.57;96516.16;5020258;28;20036;-77
2022/02/13 09:02:05;;;;;;;13.67;6.07;;;;;;;7.58;59.39;96524.59;5022429;28;20120;-77
2022/02/13 09:04:31;;;;;;;9.73;4.60;;;;;;;7.55;59.38;96522.25;5002414;28;20081;-78
2022/02/13 09:07:00;;;;;;;9.40;4.57;;;;;;;6.61;60.94;96524.13;5025602;28;20116;-77
2022/02/13 09:09:27;;;;;;;9.77;5.20;;;;;;;7.20;60.23;96522.66;5020739;28;20028;-78
2022/02/13 09:11:53;;;;;;;11.13;4.77;;;;;;;7.95;58.60;96514.31;5025064;28;20083;-77
2022/02/13 09:14:19;;;;;;;9.43;4.53;;;;;;;7.52;59.41;96518.09;5022975;28;20033;-78
2022/02/13 09:16:45;;;;;;;9.83;4.50;;;;;;;8.21;56.18;96519.00;5024088;28;20037;-77
2022/02/13 09:19:11;;;;;;;10.03;5.30;;;;;;;7.27;59.12;96519.38;5020757;28;20033;-78
2022/02/13 09:21:37;;;;;;;10.40;5.03;;;;;;;6.08;63.39;96524.13;5041293;28;20021;-78
2022/02/13 09:24:03;;;;;;;9.00;5.53;;;;;;;5.85;65.19;96513.72;5032660;28;20037;-79
2022/02/13 09:26:31;;;;;;;9.40;4.90;;;;;;;7.13;61.09;96506.66;5047728;28;20045;-77
2022/02/13 09:28:58;;;;;;;9.93;5.70;;;;;;;6.87;61.36;96505.41;5026542;28;20042;-78
2022/02/13 09:31:24;;;;;;;9.33;5.40;;;;;;;7.08;61.07;96501.81;5068504;28;20406;-78
2022/02/13 09:33:49;;;;;;;9.80;5.37;;;;;;;6.97;61.08;96491.44;5045336;28;20101;-77
2022/02/13 09:36:19;;;;;;;9.73;5.00;;;;;;;7.20;59.91;96492.09;5048099;28;20030;-77
2022/02/13 09:38:46;;;;;;;10.73;5.63;;;;;;;7.87;58.70;96492.38;5064923;28;20069;-77
2022/02/13 09:41:17;;;;;;;12.03;5.10;;;;;;;7.90;58.60;96482.47;5020329;28;20064;-77
2022/02/13 09:43:43;;;;;;;7.57;4.67;;;;;;;8.67;56.53;96476.38;5035103;28;20033;-78
2022/02/13 09:46:13;;;;;;;10.90;5.27;;;;;;;9.61;54.26;96468.41;5043900;28;20067;-77
2022/02/13 09:48:40;;;;;;;7.67;4.47;;;;;;;9.45;53.72;96466.41;5053246;28;20036;-77
2022/02/13 09:51:07;;;;;;;10.40;4.80;;;;;;;10.04;52.18;96466.06;5039068;28;20029;-78
2022/02/13 09:53:34;;;;;;;11.50;4.87;;;;;;;9.97;53.89;96463.22;5038102;28;20030;-78
2022/02/13 09:56:04;;;;;;;8.60;5.13;;;;;;;9.44;53.35;96469.19;5031775;28;20033;-78
2022/02/13 09:58:31;;;;;;;14.53;5.03;;;;;;;8.85;55.15;96470.41;5044613;28;20048;-78
2022/02/13 10:00:57;;;;;;;11.60;4.83;;;;;;;9.40;55.01;96467.84;5073628;28;20030;-78
2022/02/13 10:03:25;;;;;;;10.13;5.53;;;;;;;9.66;53.71;96468.00;5027533;28;20033;-77
2022/02/13 10:06:02;;;;;;;14.87;5.73;;;;;;;10.99;50.86;96465.31;5026880;28;20068;-78
2022/02/13 10:08:35;;;;;;;11.27;4.53;;;;;;;10.67;50.86;96473.03;5027579;28;20036;-77
2022/02/13 10:11:13;;;;;;;10.80;4.72;;;;;;;12.02;46.98;96460.78;5035544;28;20060;-78
2022/02/13 10:14:06;;;;;;;10.50;5.63;;;;;;;12.87;45.51;96446.41;5032830;28;20394;-77
2022/02/13 10:16:37;;;;;;;12.57;5.90;;;;;;;11.57;48.28;96445.34;5020071;28;20482;-77
2022/02/13 10:19:19;;;;;;;9.67;5.27;;;;;;;11.55;48.53;96453.38;5033224;28;20025;-80
2022/02/13 10:21:49;;;;;;;11.77;5.73;;;;;;;11.93;48.30;96448.56;5048071;28;20033;-79
2022/02/13 10:24:23;;;;;;;10.27;4.97;;;;;;;11.66;48.10;96433.00;5045386;28;20494;-78
2022/02/13 10:27:03;;;;;;;10.83;5.30;;;;;;;11.78;48.58;96437.81;5030201;28;20116;-77
2022/02/13 10:29:33;;;;;;;9.77;4.33;;;;;;;12.82;47.26;96431.09;5030134;28;20033;-78
2022/02/13 10:32:23;;;;;;;9.40;4.60;;;;;;;12.05;47.67;96428.00;5040367;28;20034;-78
2022/02/13 10:35:05;;;;;;;8.00;4.40;;;;;;;11.55;48.93;96427.03;5029885;28;20095;-78
2022/02/13 10:37:55;;;;;;;10.90;4.53;;;;;;;11.74;49.47;96422.50;5046395;28;20033;-77
2022/02/13 10:40:27;;;;;;;10.80;4.20;;;;;;;12.09;47.34;96415.31;5043647;28;20067;-77
2022/02/13 10:43:10;;;;;;;11.07;5.18;;;;;;;12.35;46.28;96418.63;5031256;28;20037;-78
2022/02/13 10:45:40;;;;;;;9.70;4.27;;;;;;;12.48;47.26;96403.09;5020655;28;20063;-78
2022/02/13 10:48:09;;;;;;;10.17;4.17;;;;;;;12.71;45.84;96402.41;5045116;28;20063;-77
2022/02/13 10:50:37;;;;;;;9.73;4.43;;;;;;;12.23;46.50;96397.00;5042714;28;20021;-78
2022/02/13 10:53:05;;;;;;;9.40;4.70;;;;;;;13.15;44.93;96400.13;5042658;28;20581;-79
2022/02/13 10:55:33;;;;;;;8.13;4.73;;;;;;;12.44;48.16;96390.41;5044256;28;20028;-79
2022/02/13 10:58:00;;;;;;;12.53;4.80;;;;;;;12.71;46.55;96381.31;5043056;28;20041;-79
2022/02/13 11:00:29;;;;;;;11.10;5.10;;;;;;;12.72;47.96;96380.31;5055041;28;20025;-77
2022/02/13 11:02:55;;;;;;;10.13;4.40;;;;;;;12.09;48.06;96381.03;5024084;28;20092;-78
2022/02/13 11:05:22;;;;;;;9.17;4.27;;;;;;;12.41;47.67;96373.13;5052499;28;20390;-78
2022/02/13 11:07:49;;;;;;;10.60;4.67;;;;;;;12.11;47.19;96371.16;5036875;28;20082;-78
2022/02/13 11:10:24;;;;;;;9.70;4.20;;;;;;;12.50;47.22;96372.09;5036567;28;20036;-79
2022/02/13 11:12:53;;;;;;;7.70;4.10;;;;;;;12.00;48.77;96370.50;5036587;28;20037;-78
2022/02/13 11:15:21;;;;;;;11.97;4.37;;;;;;;12.72;47.72;96367.13;5055541;28;20033;-77
2022/02/13 11:17:49;;;;;;;11.17;4.10;;;;;;;12.88;47.06;96361.78;5054485;28;20033;-78
2022/02/13 11:20:16;;;;;;;8.33;3.93;;;;;;;12.97;47.31;96352.81;5034358;28;20021;-79
2022/02/13 11:22:43;;;;;;;9.10;4.63;;;;;;;12.97;46.98;96344.91;5058780;28;20032;-78